createdAt,value
2022-12-31T00:00:31.392Z,7.93
2022-12-31T00:02:58.927Z,7.88
2022-12-31T00:05:26.337Z,8.15
2022-12-31T00:07:53.596Z,7.88
2022-12-31T00:10:21.757Z,7.50
2022-12-31T00:12:49.076Z,8.40
2022-12-31T00:15:16.466Z,7.90
2022-12-31T00:17:43.726Z,7.93
2022-12-31T00:20:11.199Z,8.32
2022-12-31T00:22:38.496Z,7.28
2022-12-31T00:25:06.056Z,8.05
2022-12-31T00:27:33.536Z,8.18
2022-12-31T00:30:04.458Z,7.80
2022-12-31T00:32:32.357Z,8.65
2022-12-31T00:35:00.280Z,8.32
2022-12-31T00:37:27.599Z,8.23
2022-12-31T00:39:54.903Z,8.48
2022-12-31T00:42:22.246Z,9.80
2022-12-31T00:44:49.529Z,7.88
2022-12-31T00:47:16.795Z,9.52
2022-12-31T00:49:44.044Z,9.95
2022-12-31T00:52:13.764Z,9.40
2022-12-31T00:54:41.089Z,9.35
2022-12-31T00:57:08.417Z,10.50
2022-12-31T00:59:35.660Z,9.43
2022-12-31T01:02:03.010Z,11.27
2022-12-31T01:04:30.324Z,11.10
2022-12-31T01:06:57.646Z,11.10
2022-12-31T01:09:24.984Z,9.98
2022-12-31T01:11:52.386Z,10.13
2022-12-31T01:14:20.482Z,10.02
2022-12-31T01:16:49.483Z,9.23
2022-12-31T01:19:21.235Z,10.52
2022-12-31T01:21:49.299Z,9.57
2022-12-31T01:24:16.678Z,11.13
2022-12-31T01:26:44.104Z,11.50
2022-12-31T01:29:12.100Z,11.70
2022-12-31T01:31:39.483Z,12.45
2022-12-31T01:34:09.886Z,10.90
2022-12-31T01:36:38.160Z,12.13
2022-12-31T01:39:06.203Z,9.68
2022-12-31T01:41:35.441Z,9.85
2022-12-31T01:44:22.668Z,10.15
2022-12-31T01:46:54.587Z,10.82
2022-12-31T01:49:21.776Z,10.25
2022-12-31T01:51:51.417Z,12.13
2022-12-31T01:54:19.880Z,9.65
2022-12-31T01:56:48.539Z,11.27
2022-12-31T01:59:17.303Z,11.05
2022-12-31T02:01:46.625Z,16.30
2022-12-31T02:04:14.839Z,15.20
2022-12-31T02:06:47.704Z,11.27
2022-12-31T02:09:15.242Z,14.02
2022-12-31T02:11:42.579Z,15.27
2022-12-31T02:14:11.704Z,15.43
2022-12-31T02:16:43.956Z,12.45
2022-12-31T02:19:24.955Z,13.18
2022-12-31T02:21:59.250Z,14.77
2022-12-31T02:24:33.039Z,13.52
2022-12-31T02:27:03.611Z,12.20
2022-12-31T02:29:41.187Z,13.45
2022-12-31T02:32:12.621Z,11.77
2022-12-31T02:34:47.675Z,12.35
2022-12-31T02:37:16.693Z,12.32
2022-12-31T02:39:44.060Z,11.93
2022-12-31T02:42:12.161Z,12.18
2022-12-31T02:44:40.555Z,13.70
2022-12-31T02:47:10.871Z,12.32
2022-12-31T02:49:53.286Z,11.98
2022-12-31T02:52:53.165Z,11.38
2022-12-31T02:55:36.789Z,11.15
2022-12-31T02:58:04.141Z,10.27
2022-12-31T03:00:52.842Z,10.93
2022-12-31T03:03:20.964Z,10.93
2022-12-31T03:05:49.026Z,11.50
2022-12-31T03:08:23.134Z,10.55
2022-12-31T03:10:50.624Z,10.95
2022-12-31T03:13:17.891Z,11.68
2022-12-31T03:15:45.228Z,12.73
2022-12-31T03:18:14.133Z,11.73
2022-12-31T03:21:04.623Z,11.35
2022-12-31T03:23:33.669Z,11.00
2022-12-31T03:26:01.272Z,11.73
2022-12-31T03:28:30.173Z,11.00
2022-12-31T03:30:58.982Z,11.70
2022-12-31T03:33:26.678Z,10.50
2022-12-31T03:35:54.016Z,12.02
2022-12-31T03:38:21.341Z,10.70
2022-12-31T03:40:50.318Z,11.68
2022-12-31T03:43:19.268Z,12.05
2022-12-31T03:45:51.738Z,11.57
2022-12-31T03:48:19.666Z,10.30
2022-12-31T03:50:46.896Z,11.15
2022-12-31T03:53:14.179Z,10.75
2022-12-31T03:55:41.413Z,10.95
2022-12-31T03:58:11.285Z,10.73
2022-12-31T04:00:38.644Z,11.85
2022-12-31T04:03:06.819Z,10.48
2022-12-31T04:06:13.522Z,12.77
2022-12-31T04:11:20.472Z,10.50
2022-12-31T04:13:51.019Z,12.32
2022-12-31T04:16:18.591Z,12.32
2022-12-31T04:18:46.298Z,12.02
2022-12-31T04:21:45.481Z,10.70
2022-12-31T04:24:17.369Z,13.35
2022-12-31T04:29:23.810Z,10.80
2022-12-31T04:31:51.827Z,12.35
2022-12-31T04:34:20.037Z,12.75
2022-12-31T04:36:49.780Z,12.32
2022-12-31T04:39:17.757Z,12.85
2022-12-31T04:41:45.331Z,13.88
2022-12-31T04:44:13.370Z,13.45
2022-12-31T04:46:42.071Z,12.40
2022-12-31T04:49:27.943Z,12.75
2022-12-31T04:52:01.799Z,12.00
2022-12-31T04:54:31.295Z,12.48
2022-12-31T04:56:59.021Z,12.27
2022-12-31T04:59:27.297Z,12.38
2022-12-31T05:01:55.504Z,12.07
2022-12-31T05:04:24.231Z,12.63
2022-12-31T05:06:54.198Z,12.93
2022-12-31T05:09:27.583Z,12.52
2022-12-31T05:11:55.348Z,11.55
2022-12-31T05:14:23.488Z,12.68
2022-12-31T05:16:52.280Z,13.20
2022-12-31T05:19:22.400Z,11.95
2022-12-31T05:22:08.687Z,12.63
2022-12-31T05:24:36.477Z,13.40
2022-12-31T05:27:04.621Z,12.77
2022-12-31T05:29:32.662Z,12.07
2022-12-31T05:32:03.332Z,11.38
2022-12-31T05:34:31.200Z,12.15
2022-12-31T05:36:59.058Z,12.82
2022-12-31T05:39:31.996Z,11.80
2022-12-31T05:42:03.183Z,12.98
2022-12-31T05:51:23.618Z,11.70
2022-12-31T05:53:51.203Z,14.52
2022-12-31T05:56:20.602Z,13.93
2022-12-31T05:58:51.626Z,14.43
2022-12-31T06:01:19.658Z,13.35
2022-12-31T06:03:47.698Z,12.98
2022-12-31T06:06:20.289Z,12.90
2022-12-31T06:08:54.231Z,12.80
2022-12-31T06:11:22.438Z,12.82
2022-12-31T06:13:50.300Z,12.43
2022-12-31T06:16:18.125Z,12.48
2022-12-31T06:18:52.975Z,12.40
2022-12-31T06:21:21.574Z,12.13
2022-12-31T06:23:49.652Z,13.27
2022-12-31T06:26:23.107Z,13.63
2022-12-31T06:28:51.861Z,13.68
2022-12-31T06:31:19.823Z,13.25
2022-12-31T06:33:47.509Z,13.93
2022-12-31T06:36:18.795Z,14.02
2022-12-31T06:38:49.647Z,14.55
2022-12-31T06:41:19.289Z,15.13
2022-12-31T06:43:47.379Z,15.05
2022-12-31T06:46:19.356Z,13.52
2022-12-31T06:51:20.802Z,13.88
2022-12-31T06:53:49.774Z,16.05
2022-12-31T06:56:19.488Z,17.98
2022-12-31T06:58:50.669Z,14.30
2022-12-31T07:01:50.595Z,16.10
2022-12-31T07:04:33.987Z,68.88
2022-12-31T07:07:20.720Z,17.20
2022-12-31T07:09:54.485Z,15.63
2022-12-31T07:12:47.233Z,17.70
2022-12-31T07:15:21.079Z,15.73
2022-12-31T07:17:57.902Z,14.02
2022-12-31T07:20:32.423Z,15.93
2022-12-31T07:23:03.272Z,14.55
2022-12-31T07:25:45.770Z,15.35
2022-12-31T07:28:28.297Z,15.98
2022-12-31T07:31:13.320Z,14.80
2022-12-31T07:33:56.622Z,15.35
2022-12-31T07:41:04.128Z,14.55
2022-12-31T07:43:41.700Z,14.85
2022-12-31T07:46:19.559Z,15.48
2022-12-31T07:48:47.852Z,16.10
2022-12-31T07:51:18.347Z,14.52
2022-12-31T07:53:46.129Z,17.17
2022-12-31T07:56:17.669Z,16.50
2022-12-31T07:59:32.721Z,17.13
2022-12-31T08:02:15.529Z,15.57
2022-12-31T08:05:01.680Z,15.73
2022-12-31T08:07:32.961Z,15.43
2022-12-31T08:10:24.384Z,13.75
2022-12-31T08:13:03.316Z,15.40
2022-12-31T08:15:44.902Z,13.98
2022-12-31T08:18:20.982Z,14.23
2022-12-31T08:20:57.622Z,15.23
2022-12-31T08:23:32.696Z,15.52
2022-12-31T08:26:19.500Z,16.25
2022-12-31T08:28:52.879Z,16.83
2022-12-31T08:35:01.609Z,14.80
2022-12-31T08:37:46.623Z,16.08
2022-12-31T08:40:40.052Z,16.17
2022-12-31T08:43:36.293Z,14.80
2022-12-31T08:46:29.132Z,15.13
2022-12-31T08:49:36.680Z,15.23
2022-12-31T08:53:10.612Z,15.77
2022-12-31T08:56:48.823Z,15.75
2022-12-31T08:59:50.457Z,13.25
2022-12-31T09:02:33.275Z,16.92
2022-12-31T09:05:12.091Z,16.70
2022-12-31T09:07:41.812Z,16.10
2022-12-31T09:10:21.405Z,17.67
2022-12-31T09:13:10.893Z,16.33
2022-12-31T09:16:00.664Z,21.42
2022-12-31T09:18:33.513Z,18.60
2022-12-31T09:21:12.788Z,17.77
2022-12-31T09:24:09.390Z,17.40
2022-12-31T09:26:54.693Z,15.35
2022-12-31T09:29:36.560Z,18.10
2022-12-31T09:32:07.355Z,16.45
2022-12-31T09:35:16.610Z,17.20
2022-12-31T09:38:28.074Z,17.45
2022-12-31T09:41:39.022Z,17.45
2022-12-31T09:44:29.510Z,16.92
2022-12-31T09:47:27.295Z,15.75
2022-12-31T09:50:19.864Z,15.73
2022-12-31T09:52:57.115Z,16.13
2022-12-31T09:55:32.666Z,17.77
2022-12-31T09:58:18.713Z,14.00
2022-12-31T10:01:11.750Z,16.98
2022-12-31T10:04:04.817Z,15.60
2022-12-31T10:06:32.637Z,15.30
2022-12-31T10:09:04.378Z,15.02
2022-12-31T10:11:50.393Z,15.02
2022-12-31T10:14:47.705Z,15.48
2022-12-31T10:17:26.946Z,15.45
2022-12-31T10:20:12.060Z,17.40
2022-12-31T10:22:39.339Z,15.43
2022-12-31T10:25:06.786Z,16.77
2022-12-31T10:27:53.019Z,16.48
2022-12-31T10:30:22.177Z,16.02
2022-12-31T10:32:50.105Z,14.85
2022-12-31T10:35:40.570Z,17.55
2022-12-31T10:38:27.442Z,15.45
2022-12-31T10:41:06.988Z,16.13
2022-12-31T10:43:53.159Z,16.88
2022-12-31T10:46:45.185Z,13.30
2022-12-31T10:49:15.576Z,14.50
2022-12-31T10:52:02.051Z,14.80
2022-12-31T10:54:32.485Z,14.38
2022-12-31T10:57:18.693Z,13.63
2022-12-31T10:59:49.089Z,14.88
2022-12-31T11:02:34.766Z,12.18
2022-12-31T11:05:11.265Z,14.02
2022-12-31T11:07:46.828Z,14.13
2022-12-31T11:10:14.799Z,12.32
2022-12-31T11:13:01.112Z,13.07
2022-12-31T11:15:43.946Z,15.38
2022-12-31T11:18:34.133Z,12.55
2022-12-31T11:21:07.591Z,11.90
2022-12-31T11:23:49.775Z,11.57
2022-12-31T11:26:43.092Z,11.68
2022-12-31T11:29:13.359Z,10.50
2022-12-31T11:31:49.825Z,10.80
2022-12-31T11:34:35.883Z,10.90
2022-12-31T11:37:18.282Z,10.40
2022-12-31T11:39:52.237Z,11.02
2022-12-31T11:42:24.520Z,10.70
2022-12-31T11:44:58.296Z,11.27
2022-12-31T11:47:25.621Z,11.55
2022-12-31T11:50:11.337Z,11.38
2022-12-31T11:52:57.533Z,10.32
2022-12-31T11:55:33.567Z,9.95
2022-12-31T11:58:08.931Z,9.95
2022-12-31T12:00:36.507Z,9.38
2022-12-31T12:03:05.246Z,9.55
2022-12-31T12:05:32.558Z,10.82
2022-12-31T12:08:00.018Z,11.13
2022-12-31T12:10:35.654Z,11.63
2022-12-31T12:13:11.549Z,10.95
2022-12-31T12:15:38.876Z,11.15
2022-12-31T12:18:09.852Z,10.18
2022-12-31T12:20:41.139Z,9.03
2022-12-31T12:23:27.836Z,8.93
2022-12-31T12:25:55.068Z,8.43
2022-12-31T12:28:27.976Z,8.82
2022-12-31T12:33:23.184Z,9.48
2022-12-31T12:35:50.922Z,9.93
2022-12-31T12:38:23.252Z,9.55
2022-12-31T12:40:54.788Z,9.40
2022-12-31T12:43:29.825Z,10.05
2022-12-31T12:46:00.008Z,8.93
2022-12-31T12:48:33.339Z,9.98
2022-12-31T12:51:00.933Z,9.20
2022-12-31T12:53:54.025Z,10.07
2022-12-31T12:56:31.993Z,9.70
2022-12-31T12:59:28.751Z,9.40
2022-12-31T13:01:56.367Z,10.90
2022-12-31T13:04:42.629Z,10.60
2022-12-31T13:07:28.530Z,9.95
2022-12-31T13:10:08.386Z,10.20
2022-12-31T13:13:21.655Z,9.45
2022-12-31T13:15:30.096Z,10.40
2022-12-31T13:18:02.608Z,9.85
2022-12-31T13:20:33.524Z,8.88
2022-12-31T13:23:12.786Z,8.32
2022-12-31T13:25:50.213Z,8.88
2022-12-31T13:28:19.258Z,8.10
2022-12-31T13:30:49.148Z,8.05
2022-12-31T13:33:16.469Z,8.57
2022-12-31T13:35:43.695Z,8.90
2022-12-31T13:38:17.607Z,8.35
2022-12-31T13:41:05.567Z,9.77
2022-12-31T13:43:36.565Z,16.83
2022-12-31T13:46:10.263Z,12.33
2022-12-31T13:48:41.386Z,25.67
2022-12-31T13:51:12.990Z,14.00
2022-12-31T13:53:47.502Z,50.97
2022-12-31T13:56:17.567Z,49.50
2022-12-31T13:59:02.240Z,27.95
2022-12-31T14:01:39.475Z,24.90
2022-12-31T14:04:26.231Z,34.90
2022-12-31T14:07:05.989Z,14.02
2022-12-31T14:09:35.066Z,19.67
2022-12-31T14:12:03.431Z,16.27
2022-12-31T14:14:30.772Z,14.05
2022-12-31T14:17:12.810Z,15.98
2022-12-31T14:19:46.569Z,15.13
2022-12-31T14:22:32.376Z,19.48
2022-12-31T14:25:00.793Z,45.28
2022-12-31T14:27:30.424Z,17.83
2022-12-31T14:30:00.143Z,12.93
2022-12-31T14:32:45.471Z,13.25
2022-12-31T14:35:28.288Z,11.48
2022-12-31T14:38:06.353Z,14.38
2022-12-31T14:40:53.189Z,23.20
2022-12-31T14:43:39.244Z,19.33
2022-12-31T14:46:32.389Z,41.58
2022-12-31T14:49:02.723Z,35.63
2022-12-31T14:51:30.326Z,28.70
2022-12-31T14:53:58.569Z,24.83
2022-12-31T14:56:38.986Z,18.05
2022-12-31T14:59:22.210Z,17.30
2022-12-31T15:01:49.531Z,16.25
2022-12-31T15:04:16.840Z,14.70
2022-12-31T15:06:52.064Z,14.35
2022-12-31T15:09:48.797Z,15.93
2022-12-31T15:12:25.877Z,13.55
2022-12-31T15:15:11.702Z,15.32
2022-12-31T15:17:45.316Z,18.98
2022-12-31T15:20:29.546Z,15.95
2022-12-31T15:22:57.269Z,20.42
2022-12-31T15:25:40.537Z,18.30
2022-12-31T15:28:09.376Z,23.60
2022-12-31T15:30:36.864Z,19.77
2022-12-31T15:33:13.518Z,22.05
2022-12-31T15:35:48.819Z,20.65
2022-12-31T15:38:16.151Z,14.73
2022-12-31T15:40:47.655Z,14.15
2022-12-31T15:43:26.839Z,17.25
2022-12-31T15:45:55.614Z,18.48
2022-12-31T15:48:47.844Z,16.05
2022-12-31T15:51:29.044Z,13.15
2022-12-31T15:53:57.953Z,13.32
2022-12-31T15:56:51.803Z,14.05
2022-12-31T15:59:23.136Z,20.90
2022-12-31T16:01:50.617Z,29.73
2022-12-31T16:04:20.264Z,32.63
2022-12-31T16:06:50.848Z,32.55
2022-12-31T16:09:41.367Z,31.57
2022-12-31T16:12:19.034Z,24.92
2022-12-31T16:14:51.871Z,22.13
2022-12-31T16:17:25.846Z,16.45
2022-12-31T16:19:53.212Z,17.42
2022-12-31T16:22:25.795Z,14.50
2022-12-31T16:25:29.089Z,13.73
2022-12-31T16:27:41.508Z,14.68
2022-12-31T16:30:18.898Z,13.80
2022-12-31T16:32:55.819Z,13.32
2022-12-31T16:35:31.024Z,12.60
2022-12-31T16:38:02.174Z,13.60
2022-12-31T16:40:29.560Z,13.32
2022-12-31T16:42:56.858Z,11.25
2022-12-31T16:45:32.296Z,11.68
2022-12-31T16:48:03.025Z,10.68
2022-12-31T16:50:30.512Z,11.73
2022-12-31T16:53:05.490Z,12.07
2022-12-31T16:55:33.792Z,12.63
2022-12-31T16:58:12.445Z,13.02
2022-12-31T17:00:40.198Z,14.57
2022-12-31T17:03:21.050Z,14.60
2022-12-31T17:05:57.425Z,18.77
2022-12-31T17:08:29.346Z,24.90
2022-12-31T17:13:28.182Z,21.48
2022-12-31T17:15:57.427Z,29.02
2022-12-31T17:18:26.156Z,36.08
2022-12-31T17:20:54.765Z,24.63
2022-12-31T17:23:32.688Z,20.27
2022-12-31T17:26:01.211Z,17.50
2022-12-31T17:28:40.268Z,17.90
2022-12-31T17:31:27.960Z,16.20
2022-12-31T17:33:55.904Z,50.75
2022-12-31T17:36:24.498Z,56.05
2022-12-31T17:38:51.791Z,32.55
2022-12-31T17:41:28.494Z,31.40
2022-12-31T17:43:56.388Z,26.23
2022-12-31T17:46:24.620Z,24.25
2022-12-31T17:48:54.020Z,20.38
2022-12-31T17:51:24.457Z,18.02
2022-12-31T17:53:52.190Z,20.02
2022-12-31T17:56:20.794Z,20.98
2022-12-31T17:58:50.207Z,19.77
2022-12-31T18:01:19.518Z,19.77
2022-12-31T18:03:47.855Z,22.23
2022-12-31T18:06:17.019Z,27.58
2022-12-31T18:08:44.590Z,30.77
2022-12-31T18:11:14.840Z,44.30
2022-12-31T18:13:42.330Z,46.08
2022-12-31T18:16:09.788Z,35.90
2022-12-31T18:18:39.932Z,35.83
2022-12-31T18:21:09.221Z,24.48
2022-12-31T18:23:38.899Z,32.05
2022-12-31T18:26:06.187Z,25.95
2022-12-31T18:28:33.474Z,29.60
2022-12-31T18:31:00.858Z,25.80
2022-12-31T18:33:28.523Z,23.05
2022-12-31T18:36:08.733Z,37.30
2022-12-31T18:38:36.807Z,29.85
2022-12-31T18:41:04.558Z,25.70
2022-12-31T18:43:31.827Z,27.92
2022-12-31T18:45:59.324Z,26.48
2022-12-31T18:48:26.834Z,24.30
2022-12-31T18:50:54.090Z,23.88
2022-12-31T18:53:22.620Z,23.80
2022-12-31T18:55:51.091Z,24.88
2022-12-31T18:58:18.427Z,25.90
2022-12-31T19:00:46.218Z,25.55
2022-12-31T19:03:15.121Z,22.20
2022-12-31T19:05:42.473Z,19.17
2022-12-31T19:08:09.848Z,18.23
2022-12-31T19:10:37.083Z,16.42
2022-12-31T19:13:04.372Z,18.25
2022-12-31T19:15:33.358Z,16.88
2022-12-31T19:18:03.533Z,17.30
2022-12-31T19:20:31.115Z,16.55
2022-12-31T19:22:58.405Z,17.05
2022-12-31T19:25:27.332Z,17.48
2022-12-31T19:27:54.747Z,16.42
2022-12-31T19:30:24.649Z,16.63
2022-12-31T19:32:52.510Z,15.43
2022-12-31T19:35:20.224Z,20.25
2022-12-31T19:37:49.025Z,19.90
2022-12-31T19:40:17.897Z,15.90
2022-12-31T19:42:45.566Z,16.40
2022-12-31T19:45:32.022Z,15.75
2022-12-31T19:47:59.449Z,15.25
2022-12-31T19:50:28.443Z,13.73
2022-12-31T19:52:57.516Z,12.85
2022-12-31T19:55:26.329Z,11.10
2022-12-31T19:57:53.707Z,13.10
2022-12-31T20:00:21.775Z,13.52
2022-12-31T20:02:49.502Z,13.13
2022-12-31T20:05:19.229Z,13.82
2022-12-31T20:07:46.785Z,11.95
2022-12-31T20:10:14.053Z,13.32
2022-12-31T20:12:44.598Z,12.15
2022-12-31T20:15:12.458Z,12.60
2022-12-31T20:17:39.708Z,14.07
2022-12-31T20:20:07.436Z,17.33
2022-12-31T20:22:34.836Z,18.10
2022-12-31T20:25:02.091Z,23.02
2022-12-31T20:27:29.485Z,25.00
2022-12-31T20:29:56.826Z,26.10
2022-12-31T20:32:24.112Z,21.95
2022-12-31T20:34:51.472Z,23.67
2022-12-31T20:37:18.736Z,28.77
2022-12-31T20:39:45.959Z,20.98
2022-12-31T20:42:13.177Z,14.30
2022-12-31T20:44:40.465Z,22.73
2022-12-31T20:47:07.822Z,20.00
2022-12-31T20:50:09.891Z,18.88
2022-12-31T20:52:22.346Z,17.92
2022-12-31T20:54:49.571Z,12.50
2022-12-31T20:57:16.881Z,12.93
2022-12-31T20:59:44.146Z,13.07
2022-12-31T21:02:26.526Z,14.55
2022-12-31T21:05:01.988Z,14.68
2022-12-31T21:07:30.074Z,15.98
2022-12-31T21:09:57.344Z,16.98
2022-12-31T21:12:43.269Z,18.08
2022-12-31T21:15:11.582Z,20.42
2022-12-31T21:17:38.797Z,28.20
2022-12-31T21:20:06.573Z,34.92
2022-12-31T21:22:33.995Z,29.70
2022-12-31T21:25:01.957Z,29.45
2022-12-31T21:27:29.995Z,28.60
2022-12-31T21:32:44.921Z,24.30
2022-12-31T21:35:42.361Z,22.55
2022-12-31T21:38:02.749Z,23.95
2022-12-31T21:40:30.667Z,23.67
2022-12-31T21:42:58.535Z,22.95
2022-12-31T21:45:26.378Z,22.70
2022-12-31T21:48:12.307Z,21.05
2022-12-31T21:50:39.584Z,24.65
2022-12-31T21:53:06.771Z,23.67
2022-12-31T21:55:52.823Z,21.15
2022-12-31T21:58:28.111Z,40.63
2022-12-31T22:01:15.934Z,29.25
2022-12-31T22:03:43.753Z,30.92
2022-12-31T22:06:20.406Z,29.70
2022-12-31T22:08:51.461Z,29.42
2022-12-31T22:11:19.129Z,28.50
2022-12-31T22:13:46.412Z,31.25
2022-12-31T22:16:14.124Z,24.88
2022-12-31T22:18:43.918Z,23.67
2022-12-31T22:21:20.036Z,21.70
2022-12-31T22:23:49.584Z,17.02
2022-12-31T22:26:18.597Z,14.75
2022-12-31T22:28:48.579Z,15.88
2022-12-31T22:31:24.285Z,12.40
2022-12-31T22:33:52.091Z,13.57
2022-12-31T22:36:23.061Z,13.57
2022-12-31T22:38:50.975Z,14.57
2022-12-31T22:41:26.053Z,13.57
2022-12-31T22:44:00.486Z,10.75
2022-12-31T22:46:30.255Z,15.65
2022-12-31T22:48:58.547Z,13.13
2022-12-31T22:51:57.332Z,15.05
2022-12-31T22:54:16.392Z,15.95
2022-12-31T22:56:44.486Z,16.10
2022-12-31T22:59:11.697Z,19.05
2022-12-31T23:01:39.101Z,26.50
2022-12-31T23:04:06.509Z,18.33
2022-12-31T23:06:43.285Z,27.88
2022-12-31T23:09:30.109Z,51.75
2022-12-31T23:11:57.567Z,55.15
2022-12-31T23:14:43.501Z,169.25
2022-12-31T23:17:34.699Z,168.98
2022-12-31T23:20:21.233Z,170.38
2022-12-31T23:23:07.447Z,282.17
2022-12-31T23:25:43.202Z,137.27
2022-12-31T23:28:12.798Z,125.03
2022-12-31T23:30:41.217Z,90.55
2022-12-31T23:33:09.392Z,105.40
2022-12-31T23:35:36.888Z,91.82
2022-12-31T23:38:04.319Z,64.38
2022-12-31T23:40:35.374Z,82.15
2022-12-31T23:43:03.819Z,64.93
2022-12-31T23:45:33.472Z,38.50
2022-12-31T23:48:01.326Z,30.58
2022-12-31T23:50:28.838Z,29.65
2022-12-31T23:52:56.243Z,24.98
2022-12-31T23:55:23.663Z,24.73
2022-12-31T23:57:51.079Z,24.95
